Time;durP1;ratioP1;P1;durP2;ratioP2;P2;SDS_P1;SDS_P2;PMS_P1;PMS_P2;Temp;Humidity;BMP_temperature;BMP_pressure;BME280_temperature;BME280_humidity;BME280_pressure;Samples;Min_cycle;Max_cycle;Signal;HPM_P1;HPM_P2
2024/03/22 00:01:46;;;;;;;;;;;8.40;99.90;;;;;;5090279;28;19925;-77
2024/03/22 00:04:12;;;;;;;;;;;8.40;99.90;;;;;;5008974;28;19917;-78
2024/03/22 00:06:38;;;;;;;;;;;8.40;99.90;;;;;;5061893;28;20033;-77
2024/03/22 00:09:04;;;;;;;;;;;8.50;99.90;;;;;;5043607;28;20602;-78
2024/03/22 00:11:31;;;;;;;;;;;8.40;99.90;;;;;;5041131;28;19917;-77
2024/03/22 00:13:57;;;;;;;;;;;8.50;99.90;;;;;;4991956;28;19921;-78
2024/03/22 00:16:23;;;;;;;;;;;8.40;99.90;;;;;;5006280;28;19956;-76
2024/03/22 00:18:49;;;;;;;;;;;8.50;99.90;;;;;;5016224;28;20404;-76
2024/03/22 00:21:17;;;;;;;;;;;8.50;99.90;;;;;;5020133;28;19941;-76
2024/03/22 00:23:44;;;;;;;;;;;8.50;99.90;;;;;;5019244;28;19912;-77
2024/03/22 00:26:10;;;;;;;;;;;8.50;99.90;;;;;;5020749;28;19944;-77
2024/03/22 00:28:35;;;;;;;;;;;8.50;99.90;;;;;;5018599;28;20333;-74
2024/03/22 00:31:01;;;;;;;;;;;8.50;99.90;;;;;;5042576;28;19919;-75
2024/03/22 00:33:26;;;;;;;;;;;8.60;99.90;;;;;;5087624;28;19923;-76
2024/03/22 00:35:52;;;;;;;;;;;8.60;99.90;;;;;;5056729;28;19928;-76
2024/03/22 00:38:18;;;;;;;;;;;8.60;99.90;;;;;;5036122;28;19971;-76
2024/03/22 00:40:43;;;;;;;;;;;8.60;99.90;;;;;;5022371;28;20032;-75
2024/03/22 00:43:09;;;;;;;;;;;8.60;99.90;;;;;;5035232;28;19913;-76
2024/03/22 00:45:35;;;;;;;;;;;8.60;99.90;;;;;;5034849;28;19917;-76
2024/03/22 00:48:00;;;;;;;;;;;8.70;99.90;;;;;;5053522;28;19964;-74
2024/03/22 00:50:26;;;;;;;;;;;8.70;99.90;;;;;;5072004;28;19917;-75
2024/03/22 00:52:58;;;;;;;;;;;8.70;99.90;;;;;;5071299;28;19920;-76
2024/03/22 00:55:23;;;;;;;;;;;8.80;99.90;;;;;;5056129;28;19917;-76
2024/03/22 00:57:49;;;;;;;;;;;8.80;99.90;;;;;;5012858;28;19963;-76
2024/03/22 01:00:16;;;;;;;;;;;8.80;99.90;;;;;;5035966;28;19917;-76
2024/03/22 01:02:42;;;;;;;;;;;8.80;99.90;;;;;;5013635;28;19925;-77
2024/03/22 01:05:07;;;;;;;;;;;8.90;99.90;;;;;;5015005;28;20403;-77
2024/03/22 01:07:33;;;;;;;;;;;8.90;99.90;;;;;;5039190;28;20004;-76
2024/03/22 01:10:06;;;;;;;;;;;8.90;99.90;;;;;;5033712;28;20312;-76
2024/03/22 01:12:32;;;;;;;;;;;8.90;99.90;;;;;;5032094;28;19917;-76
2024/03/22 01:14:57;;;;;;;;;;;8.90;99.90;;;;;;5032730;28;20277;-76
2024/03/22 01:17:23;;;;;;;;;;;8.90;99.90;;;;;;5051344;28;19913;-77
2024/03/22 01:19:49;;;;;;;;;;;8.90;99.90;;;;;;5073453;28;20309;-77
2024/03/22 01:22:19;;;;;;;;;;;9.00;99.90;;;;;;5015248;28;19922;-76
2024/03/22 01:24:45;;;;;;;;;;;9.00;99.90;;;;;;5033185;28;19917;-77
2024/03/22 01:27:10;;;;;;;;;;;9.00;99.90;;;;;;5015948;28;19996;-76
2024/03/22 01:29:36;;;;;;;;;;;9.00;99.90;;;;;;5086414;28;20525;-77
2024/03/22 01:32:02;;;;;;;;;;;9.00;99.90;;;;;;5038089;28;19917;-77
2024/03/22 01:34:28;;;;;;;;;;;9.00;99.90;;;;;;5013391;28;19922;-77
2024/03/22 01:36:53;;;;;;;;;;;9.10;99.90;;;;;;5030590;28;19914;-77
2024/03/22 01:39:21;;;;;;;;;;;9.10;99.90;;;;;;5062451;28;19944;-77
2024/03/22 01:41:47;;;;;;;;;;;9.10;99.90;;;;;;5053986;28;19921;-77
2024/03/22 01:44:14;;;;;;;;;;;9.10;99.90;;;;;;5050931;28;19917;-77
2024/03/22 01:46:40;;;;;;;;;;;9.10;99.90;;;;;;5033048;28;20048;-75
2024/03/22 01:49:06;;;;;;;;;;;9.10;99.90;;;;;;5033908;28;19916;-76
2024/03/22 01:51:31;;;;;;;;;;;9.10;99.90;;;;;;5040322;28;19967;-76
2024/03/22 01:53:57;;;;;;;;;;;9.10;99.90;;;;;;5081189;28;19952;-76
2024/03/22 01:56:23;;;;;;;;;;;9.10;99.90;;;;;;5000631;28;19996;-76
2024/03/22 01:58:49;;;;;;;;;;;9.20;99.90;;;;;;5032854;28;20687;-76
2024/03/22 02:01:15;;;;;;;;;;;9.20;99.90;;;;;;5064793;28;20254;-76
2024/03/22 02:03:41;;;;;;;;;;;9.20;99.90;;;;;;5036628;28;19916;-76
2024/03/22 02:06:06;;;;;;;;;;;9.20;99.90;;;;;;5040033;28;20676;-76
2024/03/22 02:08:32;;;;;;;;;;;9.20;99.90;;;;;;5050409;28;19913;-76
2024/03/22 02:10:58;;;;;;;;;;;9.20;99.90;;;;;;5069715;28;19947;-75
2024/03/22 02:13:24;;;;;;;;;;;9.20;99.90;;;;;;5047262;28;20286;-76
2024/03/22 02:15:49;;;;;;;;;;;9.20;99.90;;;;;;5015913;28;19991;-76
2024/03/22 02:18:15;;;;;;;;;;;9.20;99.90;;;;;;5044865;28;20006;-76
2024/03/22 02:20:41;;;;;;;;;;;9.20;99.90;;;;;;5027068;28;20063;-76
2024/03/22 02:23:07;;;;;;;;;;;9.30;99.90;;;;;;5035518;28;19914;-76
2024/03/22 02:25:32;;;;;;;;;;;9.30;99.90;;;;;;5049321;28;19943;-76
2024/03/22 02:27:58;;;;;;;;;;;9.30;99.90;;;;;;5031208;28;19921;-76
2024/03/22 02:30:25;;;;;;;;;;;9.30;99.90;;;;;;5067885;28;19924;-77
2024/03/22 02:32:50;;;;;;;;;;;9.30;99.90;;;;;;5024154;28;19912;-76
2024/03/22 02:35:16;;;;;;;;;;;9.30;99.90;;;;;;5000808;28;19913;-76
2024/03/22 02:37:42;;;;;;;;;;;9.30;99.90;;;;;;5047361;28;19923;-77
2024/03/22 02:40:07;;;;;;;;;;;9.30;99.90;;;;;;5039683;28;19992;-77
2024/03/22 02:42:33;;;;;;;;;;;9.30;99.90;;;;;;5042707;28;19953;-77
2024/03/22 02:44:59;;;;;;;;;;;9.30;99.90;;;;;;5020172;28;19921;-77
2024/03/22 02:47:24;;;;;;;;;;;9.40;99.90;;;;;;5066607;28;19916;-77
2024/03/22 02:49:50;;;;;;;;;;;9.30;99.90;;;;;;5052461;28;19917;-77
2024/03/22 02:52:16;;;;;;;;;;;9.40;99.90;;;;;;5067687;28;19917;-77
2024/03/22 02:54:41;;;;;;;;;;;9.40;99.90;;;;;;5037343;28;20008;-77
2024/03/22 02:57:08;;;;;;;;;;;9.40;99.90;;;;;;5053040;28;20661;-77
2024/03/22 02:59:34;;;;;;;;;;;9.40;99.90;;;;;;5037746;28;20373;-77
2024/03/22 03:01:59;;;;;;;;;;;9.40;99.90;;;;;;5016566;28;19969;-77
2024/03/22 03:04:25;;;;;;;;;;;9.40;99.90;;;;;;5050629;28;20008;-77
2024/03/22 03:06:51;;;;;;;;;;;9.40;99.90;;;;;;5045495;28;19928;-77
2024/03/22 03:09:16;;;;;;;;;;;9.40;99.90;;;;;;5038397;28;19921;-77
2024/03/22 03:11:42;;;;;;;;;;;9.40;99.90;;;;;;5039069;28;19919;-76
2024/03/22 03:14:07;;;;;;;;;;;9.40;99.90;;;;;;5009487;28;19975;-76
2024/03/22 03:16:35;;;;;;;;;;;9.40;99.90;;;;;;5041451;28;20238;-77
2024/03/22 03:19:00;;;;;;;;;;;9.40;99.90;;;;;;5071401;28;19948;-78
2024/03/22 03:21:26;;;;;;;;;;;9.40;99.90;;;;;;5043214;28;20376;-76
2024/03/22 03:23:52;;;;;;;;;;;9.40;99.90;;;;;;5090506;28;19913;-77
2024/03/22 03:26:17;;;;;;;;;;;9.40;99.90;;;;;;5041992;28;19917;-76
2024/03/22 03:28:43;;;;;;;;;;;9.40;99.90;;;;;;5024850;28;19976;-76
2024/03/22 03:31:08;;;;;;;;;;;9.40;99.90;;;;;;5057469;28;19955;-77
2024/03/22 03:33:34;;;;;;;;;;;9.40;99.90;;;;;;5040247;28;19917;-77
2024/03/22 03:36:00;;;;;;;;;;;9.40;99.90;;;;;;5041506;28;19917;-76
2024/03/22 03:38:25;;;;;;;;;;;9.40;99.90;;;;;;5024255;28;19921;-78
2024/03/22 03:40:51;;;;;;;;;;;9.40;99.90;;;;;;5035083;28;19917;-78
2024/03/22 03:43:17;;;;;;;;;;;9.40;99.90;;;;;;5027608;28;19913;-76
2024/03/22 03:45:42;;;;;;;;;;;9.50;99.90;;;;;;5076187;28;20727;-77
2024/03/22 03:48:08;;;;;;;;;;;9.50;99.90;;;;;;5057283;28;19917;-77
2024/03/22 03:50:33;;;;;;;;;;;9.40;99.90;;;;;;5051197;28;19915;-76
2024/03/22 03:52:59;;;;;;;;;;;9.40;99.90;;;;;;5076447;28;19959;-76
2024/03/22 03:55:25;;;;;;;;;;;9.40;99.90;;;;;;5076378;28;19983;-77
2024/03/22 03:57:50;;;;;;;;;;;9.50;99.90;;;;;;5066222;28;19913;-76
2024/03/22 04:00:17;;;;;;;;;;;9.50;99.90;;;;;;5052689;28;19917;-77
2024/03/22 04:02:43;;;;;;;;;;;9.50;99.90;;;;;;5028955;28;20411;-77
2024/03/22 04:05:08;;;;;;;;;;;9.50;99.90;;;;;;5036785;28;19921;-77
2024/03/22 04:07:34;;;;;;;;;;;9.50;99.90;;;;;;5043136;28;19917;-76
2024/03/22 04:10:00;;;;;;;;;;;9.50;99.90;;;;;;5036292;28;20015;-76
2024/03/22 04:12:26;;;;;;;;;;;9.50;99.90;;;;;;5036620;28;19917;-76
2024/03/22 04:14:52;;;;;;;;;;;9.50;99.90;;;;;;5037717;28;20004;-76
2024/03/22 04:17:18;;;;;;;;;;;9.40;99.90;;;;;;5055784;28;19957;-76
2024/03/22 04:19:43;;;;;;;;;;;9.50;99.90;;;;;;5023356;28;19913;-75
2024/03/22 04:22:09;;;;;;;;;;;9.40;99.90;;;;;;5023385;28;19971;-78
2024/03/22 04:24:35;;;;;;;;;;;9.50;99.90;;;;;;5043049;28;19916;-77
2024/03/22 04:27:00;;;;;;;;;;;9.50;99.90;;;;;;5039732;28;19921;-77
2024/03/22 04:29:26;;;;;;;;;;;9.50;99.90;;;;;;5040617;28;19925;-77
2024/03/22 04:31:54;;;;;;;;;;;9.50;99.90;;;;;;5006883;28;19920;-76
2024/03/22 04:34:20;;;;;;;;;;;9.50;99.90;;;;;;5051431;28;20820;-76
2024/03/22 04:36:45;;;;;;;;;;;9.50;99.90;;;;;;5034342;28;19917;-76
2024/03/22 04:39:12;;;;;;;;;;;9.60;99.90;;;;;;5045194;28;19939;-76
2024/03/22 04:41:38;;;;;;;;;;;9.50;99.90;;;;;;5056384;28;20281;-76
2024/03/22 04:44:04;;;;;;;;;;;9.50;99.90;;;;;;5027542;28;20385;-77
2024/03/22 04:46:30;;;;;;;;;;;9.50;99.90;;;;;;5087644;28;20082;-76
2024/03/22 04:48:55;;;;;;;;;;;9.50;99.90;;;;;;5038247;28;19917;-76
2024/03/22 04:51:21;;;;;;;;;;;9.50;99.90;;;;;;5042162;28;19923;-76
2024/03/22 04:53:47;;;;;;;;;;;9.50;99.90;;;;;;5020492;28;20334;-76
2024/03/22 04:56:12;;;;;;;;;;;9.50;99.90;;;;;;5050598;28;20707;-76
2024/03/22 04:58:38;;;;;;;;;;;9.50;99.90;;;;;;5042297;28;19963;-76
2024/03/22 05:01:03;;;;;;;;;;;9.50;99.90;;;;;;5016371;28;20012;-77
2024/03/22 05:03:29;;;;;;;;;;;9.50;99.90;;;;;;5018391;28;19917;-76
2024/03/22 05:05:56;;;;;;;;;;;9.50;99.90;;;;;;4998272;28;19921;-76
2024/03/22 05:08:21;;;;;;;;;;;9.50;99.90;;;;;;5047695;28;19917;-76
2024/03/22 05:10:47;;;;;;;;;;;9.50;99.90;;;;;;5032852;28;19920;-76
2024/03/22 05:13:13;;;;;;;;;;;9.50;99.90;;;;;;5050723;28;20404;-76
2024/03/22 05:15:38;;;;;;;;;;;9.50;99.90;;;;;;5056222;28;20012;-76
2024/03/22 05:18:04;;;;;;;;;;;9.50;99.90;;;;;;5047262;28;19914;-76
2024/03/22 05:20:30;;;;;;;;;;;9.50;99.90;;;;;;5030180;28;19913;-76
2024/03/22 05:22:55;;;;;;;;;;;9.60;99.90;;;;;;5049439;28;20000;-76
2024/03/22 05:25:21;;;;;;;;;;;9.60;99.90;;;;;;5034460;28;20386;-76
2024/03/22 05:27:47;;;;;;;;;;;9.60;99.90;;;;;;5018689;28;19917;-77
2024/03/22 05:30:13;;;;;;;;;;;9.60;99.90;;;;;;5050110;28;20012;-77
2024/03/22 05:32:40;;;;;;;;;;;9.60;99.90;;;;;;5066631;28;19925;-76
2024/03/22 05:35:06;;;;;;;;;;;9.60;99.90;;;;;;5077177;28;20337;-77
2024/03/22 05:37:33;;;;;;;;;;;9.60;99.90;;;;;;5041363;28;20004;-76
2024/03/22 05:40:00;;;;;;;;;;;9.60;99.90;;;;;;5034380;28;19917;-76
2024/03/22 05:42:26;;;;;;;;;;;9.60;99.90;;;;;;5031157;28;19948;-76
2024/03/22 05:44:52;;;;;;;;;;;9.60;99.90;;;;;;5034441;28;19968;-76
2024/03/22 05:47:18;;;;;;;;;;;9.60;99.90;;;;;;5017927;28;19928;-76
2024/03/22 05:49:45;;;;;;;;;;;9.60;99.90;;;;;;5079248;28;20001;-76
2024/03/22 05:52:12;;;;;;;;;;;9.70;99.90;;;;;;5070447;28;19952;-76
2024/03/22 05:54:37;;;;;;;;;;;9.60;99.90;;;;;;5033333;28;19978;-76
2024/03/22 05:57:05;;;;;;;;;;;9.70;99.90;;;;;;5059109;28;20029;-76
2024/03/22 05:59:31;;;;;;;;;;;9.60;99.90;;;;;;5017098;28;19913;-76
2024/03/22 06:01:56;;;;;;;;;;;9.70;99.90;;;;;;5044567;28;19932;-76
2024/03/22 06:04:23;;;;;;;;;;;9.70;99.90;;;;;;4998014;28;19947;-76
2024/03/22 06:06:49;;;;;;;;;;;9.70;99.90;;;;;;5045920;28;20326;-76
2024/03/22 06:09:23;;;;;;;;;;;9.80;99.90;;;;;;5041283;28;19913;-76
2024/03/22 06:11:49;;;;;;;;;;;9.80;99.90;;;;;;5052450;28;19922;-76
2024/03/22 06:14:15;;;;;;;;;;;9.80;99.90;;;;;;5073499;28;19920;-76
2024/03/22 06:16:41;;;;;;;;;;;9.80;99.90;;;;;;5064416;28;19917;-77
2024/03/22 06:19:06;;;;;;;;;;;9.80;99.90;;;;;;5024203;28;19917;-76
2024/03/22 06:21:32;;;;;;;;;;;9.90;99.90;;;;;;5035791;28;19952;-77
2024/03/22 06:23:58;;;;;;;;;;;9.90;99.90;;;;;;5023758;28;19960;-77
2024/03/22 06:26:24;;;;;;;;;;;9.90;99.90;;;;;;5042916;28;19921;-77
2024/03/22 06:28:52;;;;;;;;;;;9.90;99.90;;;;;;5044816;28;20314;-76
2024/03/22 06:31:21;;;;;;;;;;;9.90;99.90;;;;;;5007588;28;19960;-77
2024/03/22 06:33:47;;;;;;;;;;;9.90;99.90;;;;;;5026112;28;19966;-78
2024/03/22 06:36:12;;;;;;;;;;;9.90;99.90;;;;;;5035518;28;19980;-78
2024/03/22 06:38:38;;;;;;;;;;;9.90;99.90;;;;;;5049185;28;20014;-76
2024/03/22 06:41:04;;;;;;;;;;;10.00;99.90;;;;;;5080503;28;20057;-77
2024/03/22 06:43:29;;;;;;;;;;;10.00;99.90;;;;;;5083402;28;19949;-77
2024/03/22 06:45:55;;;;;;;;;;;10.00;99.90;;;;;;5046124;28;19917;-77
2024/03/22 06:48:20;;;;;;;;;;;10.10;99.90;;;;;;5067555;28;19984;-76
2024/03/22 06:50:46;;;;;;;;;;;10.10;99.90;;;;;;5029105;28;19924;-77
2024/03/22 06:53:12;;;;;;;;;;;10.10;99.90;;;;;;5054384;28;19913;-77
2024/03/22 06:55:40;;;;;;;;;;;10.10;99.90;;;;;;5012850;28;20178;-77
2024/03/22 06:58:10;;;;;;;;;;;10.20;99.90;;;;;;5059507;28;20616;-77
2024/03/22 07:00:35;;;;;;;;;;;10.20;99.90;;;;;;5056961;28;20399;-77
2024/03/22 07:03:02;;;;;;;;;;;10.20;99.90;;;;;;5040688;28;19924;-77
2024/03/22 07:05:31;;;;;;;;;;;10.20;99.90;;;;;;5062841;28;19928;-77
2024/03/22 07:08:00;;;;;;;;;;;10.20;99.90;;;;;;5076910;28;19915;-77
2024/03/22 07:10:27;;;;;;;;;;;10.30;99.90;;;;;;5033186;28;20009;-76
2024/03/22 07:12:54;;;;;;;;;;;10.30;99.90;;;;;;5076021;28;19913;-76
2024/03/22 07:15:20;;;;;;;;;;;10.30;99.90;;;;;;5041850;28;19928;-76
2024/03/22 07:17:46;;;;;;;;;;;10.30;99.90;;;;;;5046815;28;20290;-76
2024/03/22 07:20:11;;;;;;;;;;;10.30;99.90;;;;;;5044820;28;19917;-77
2024/03/22 07:22:37;;;;;;;;;;;10.40;99.90;;;;;;5076631;28;19917;-76
2024/03/22 07:25:03;;;;;;;;;;;10.40;99.90;;;;;;5053694;28;19932;-77
2024/03/22 07:27:31;;;;;;;;;;;10.40;99.90;;;;;;5040501;28;19922;-78
2024/03/22 07:29:57;;;;;;;;;;;10.40;99.90;;;;;;5002331;28;19921;-76
2024/03/22 07:32:22;;;;;;;;;;;10.50;99.90;;;;;;5034648;28;19917;-77
2024/03/22 07:34:48;;;;;;;;;;;10.50;99.90;;;;;;5082124;28;19948;-77
2024/03/22 07:37:14;;;;;;;;;;;10.50;99.90;;;;;;5006179;28;19917;-77
2024/03/22 07:39:39;;;;;;;;;;;10.50;99.90;;;;;;5064925;28;19913;-77
2024/03/22 07:42:05;;;;;;;;;;;10.60;99.90;;;;;;5021175;28;19913;-77
2024/03/22 07:44:31;;;;;;;;;;;10.60;99.90;;;;;;5017060;28;19913;-77
2024/03/22 07:46:56;;;;;;;;;;;10.60;99.90;;;;;;5036662;28;19917;-77
2024/03/22 07:49:22;;;;;;;;;;;10.60;99.90;;;;;;5069677;28;20610;-77
2024/03/22 07:51:47;;;;;;;;;;;10.70;99.90;;;;;;5018191;28;20308;-77
2024/03/22 07:54:13;;;;;;;;;;;10.70;99.90;;;;;;5059910;28;20297;-76
2024/03/22 07:56:40;;;;;;;;;;;10.80;99.90;;;;;;5032190;28;20655;-76
2024/03/22 07:59:05;;;;;;;;;;;10.80;99.90;;;;;;5023484;28;19916;-76
2024/03/22 08:01:31;;;;;;;;;;;10.90;99.90;;;;;;5028730;28;19925;-76
2024/03/22 08:03:57;;;;;;;;;;;11.00;99.90;;;;;;5016529;28;19921;-76
2024/03/22 08:06:22;;;;;;;;;;;11.00;99.90;;;;;;5017963;28;19932;-76
2024/03/22 08:08:48;;;;;;;;;;;11.10;99.90;;;;;;5019160;28;19921;-77
2024/03/22 08:11:13;;;;;;;;;;;11.10;99.90;;;;;;5056106;28;19913;-77
2024/03/22 08:13:39;;;;;;;;;;;11.10;99.90;;;;;;5060561;28;20357;-77
2024/03/22 08:16:05;;;;;;;;;;;11.20;99.90;;;;;;5054457;28;19921;-76
2024/03/22 08:18:32;;;;;;;;;;;11.20;99.90;;;;;;5052904;28;19928;-77
2024/03/22 08:20:59;;;;;;;;;;;11.20;99.90;;;;;;5055033;28;19956;-77
2024/03/22 08:23:24;;;;;;;;;;;11.30;99.90;;;;;;5032318;28;19917;-77
2024/03/22 08:25:50;;;;;;;;;;;11.30;99.90;;;;;;5001968;28;19928;-76
2024/03/22 08:28:17;;;;;;;;;;;11.30;99.90;;;;;;5017570;28;19917;-77
2024/03/22 08:30:42;;;;;;;;;;;11.30;99.90;;;;;;5034480;28;19959;-76
2024/03/22 08:33:09;;;;;;;;;;;11.40;99.90;;;;;;5015720;28;20278;-76
2024/03/22 08:35:34;;;;;;;;;;;11.50;99.90;;;;;;5006406;28;20233;-75
2024/03/22 08:38:00;;;;;;;;;;;11.50;99.90;;;;;;5003373;28;20299;-77
2024/03/22 08:40:27;;;;;;;;;;;11.50;99.90;;;;;;5056116;28;20000;-75
2024/03/22 08:42:52;;;;;;;;;;;11.50;99.90;;;;;;5079595;28;19917;-75
2024/03/22 08:45:18;;;;;;;;;;;11.50;99.90;;;;;;5083025;28;19921;-75
2024/03/22 08:47:48;;;;;;;;;;;11.60;99.90;;;;;;5076958;28;19928;-75
2024/03/22 08:50:14;;;;;;;;;;;11.60;99.90;;;;;;5039567;28;19917;-74
2024/03/22 08:52:40;;;;;;;;;;;11.60;99.90;;;;;;5047503;28;20017;-76
2024/03/22 08:55:06;;;;;;;;;;;11.60;99.90;;;;;;5024432;28;20301;-77
2024/03/22 08:57:36;;;;;;;;;;;11.60;99.90;;;;;;5048109;28;19920;-77
2024/03/22 09:00:01;;;;;;;;;;;11.60;99.90;;;;;;5053332;28;19916;-76
2024/03/22 09:02:28;;;;;;;;;;;11.60;99.90;;;;;;5038170;28;20354;-78
2024/03/22 09:04:55;;;;;;;;;;;11.60;99.90;;;;;;5019119;28;19928;-77
2024/03/22 09:07:21;;;;;;;;;;;11.60;99.90;;;;;;5018353;28;19982;-78
2024/03/22 09:09:47;;;;;;;;;;;11.60;99.90;;;;;;5002898;28;19913;-78
2024/03/22 09:12:13;;;;;;;;;;;11.70;99.90;;;;;;5036410;28;19979;-76
2024/03/22 09:14:38;;;;;;;;;;;11.80;99.90;;;;;;5054017;28;19920;-78
2024/03/22 09:17:04;;;;;;;;;;;11.80;99.90;;;;;;5038957;28;19966;-78
2024/03/22 09:19:29;;;;;;;;;;;11.80;99.90;;;;;;5020465;28;19917;-78
2024/03/22 09:21:55;;;;;;;;;;;11.80;99.90;;;;;;5067311;28;19928;-78
2024/03/22 09:24:21;;;;;;;;;;;11.80;99.90;;;;;;5034364;28;19920;-80
2024/03/22 09:26:47;;;;;;;;;;;11.90;99.90;;;;;;5065323;28;19917;-78
2024/03/22 09:29:15;;;;;;;;;;;11.90;99.90;;;;;;5030891;28;19917;-76
2024/03/22 09:31:41;;;;;;;;;;;12.00;99.90;;;;;;5035463;28;19925;-77
2024/03/22 09:34:06;;;;;;;;;;;12.00;99.90;;;;;;5034006;28;19928;-77
2024/03/22 09:36:35;;;;;;;;;;;11.90;99.90;;;;;;5064167;28;19920;-78
2024/03/22 09:39:03;;;;;;;;;;;11.90;99.90;;;;;;5052234;28;19913;-78
2024/03/22 09:41:30;;;;;;;;;;;11.90;99.90;;;;;;5052006;28;19917;-77
2024/03/22 09:43:57;;;;;;;;;;;12.00;99.90;;;;;;5046391;28;19928;-78
2024/03/22 09:46:24;;;;;;;;;;;12.00;99.90;;;;;;5028017;28;19928;-77
2024/03/22 09:48:50;;;;;;;;;;;12.00;99.90;;;;;;5006574;28;19924;-78
2024/03/22 09:51:18;;;;;;;;;;;12.00;99.90;;;;;;5034202;28;19921;-78
2024/03/22 09:53:44;;;;;;;;;;;12.10;99.90;;;;;;5034549;28;20370;-82
2024/03/22 09:56:16;;;;;;;;;;;12.00;99.90;;;;;;5031580;28;20036;-80
2024/03/22 09:58:42;;;;;;;;;;;12.10;99.90;;;;;;5068629;28;19999;-80
2024/03/22 10:01:08;;;;;;;;;;;12.10;99.90;;;;;;5070751;28;20314;-80
2024/03/22 10:03:33;;;;;;;;;;;12.10;99.90;;;;;;5037161;28;19925;-81
2024/03/22 10:05:59;;;;;;;;;;;12.10;99.90;;;;;;5011405;28;19921;-80
2024/03/22 10:08:25;;;;;;;;;;;12.10;99.90;;;;;;5018764;28;19928;-81
2024/03/22 10:10:50;;;;;;;;;;;12.10;99.90;;;;;;5050717;28;19917;-81
2024/03/22 10:13:16;;;;;;;;;;;12.20;99.90;;;;;;5025389;28;19939;-81
2024/03/22 10:15:42;;;;;;;;;;;12.20;99.90;;;;;;5034432;28;19913;-81
2024/03/22 10:18:09;;;;;;;;;;;12.20;99.90;;;;;;5050759;28;20003;-81
2024/03/22 10:20:35;;;;;;;;;;;12.30;99.90;;;;;;5052973;28;19956;-82
2024/03/22 10:23:10;;;;;;;;;;;12.30;99.90;;;;;;5016755;28;19975;-75
2024/03/22 10:25:36;;;;;;;;;;;12.30;99.90;;;;;;5045382;28;19921;-77
2024/03/22 10:28:01;;;;;;;;;;;12.40;99.90;;;;;;5053656;28;20332;-78
2024/03/22 10:30:28;;;;;;;;;;;12.50;99.90;;;;;;5039258;28;19913;-75
2024/03/22 10:32:54;;;;;;;;;;;12.50;99.90;;;;;;5015646;28;19943;-76
2024/03/22 10:35:20;;;;;;;;;;;12.50;99.90;;;;;;5015696;28;19920;-76
2024/03/22 10:37:46;;;;;;;;;;;12.50;99.90;;;;;;5018143;28;19919;-76
2024/03/22 10:40:12;;;;;;;;;;;12.50;99.90;;;;;;5078026;28;20002;-77
2024/03/22 10:42:38;;;;;;;;;;;12.60;99.90;;;;;;5040398;28;20003;-77
2024/03/22 10:45:04;;;;;;;;;;;12.60;99.90;;;;;;5044686;28;19932;-75
2024/03/22 10:47:30;;;;;;;;;;;12.70;99.90;;;;;;5045595;28;20380;-75
2024/03/22 10:49:58;;;;;;;;;;;12.70;99.90;;;;;;5014943;28;20012;-76
2024/03/22 10:52:24;;;;;;;;;;;12.80;99.90;;;;;;5024074;28;20609;-76
2024/03/22 10:54:50;;;;;;;;;;;12.80;99.90;;;;;;5017498;28;20738;-76
2024/03/22 10:57:15;;;;;;;;;;;12.80;99.90;;;;;;5030899;28;19914;-75
2024/03/22 10:59:41;;;;;;;;;;;12.80;99.90;;;;;;5053646;28;19944;-77
2024/03/22 11:02:09;;;;;;;;;;;12.90;99.90;;;;;;5030575;28;19921;-76
2024/03/22 11:04:35;;;;;;;;;;;12.90;99.90;;;;;;5017071;28;20488;-76
2024/03/22 11:07:03;;;;;;;;;;;12.90;99.90;;;;;;5005749;28;19925;-74
2024/03/22 11:09:29;;;;;;;;;;;12.90;99.90;;;;;;5017499;28;19928;-78
2024/03/22 11:11:56;;;;;;;;;;;12.90;99.90;;;;;;5050705;28;19963;-77
2024/03/22 11:14:24;;;;;;;;;;;12.90;99.90;;;;;;5060456;28;19923;-77
2024/03/22 11:16:50;;;;;;;;;;;12.90;99.90;;;;;;5025362;28;19916;-77
2024/03/22 11:19:16;;;;;;;;;;;12.90;99.90;;;;;;5024685;28;20003;-77
2024/03/22 11:21:41;;;;;;;;;;;12.90;99.90;;;;;;5033193;28;20004;-77
2024/03/22 11:24:07;;;;;;;;;;;12.90;99.90;;;;;;5050376;28;19955;-74
2024/03/22 11:26:33;;;;;;;;;;;13.00;99.90;;;;;;5065980;28;19999;-76
2024/03/22 11:28:59;;;;;;;;;;;13.00;99.90;;;;;;5023825;28;20011;-76
2024/03/22 11:31:27;;;;;;;;;;;13.00;99.90;;;;;;5038812;28;19917;-74
2024/03/22 11:33:53;;;;;;;;;;;13.00;99.90;;;;;;5035791;28;19917;-74
2024/03/22 11:36:19;;;;;;;;;;;13.00;99.90;;;;;;5048789;28;19918;-76
2024/03/22 11:38:44;;;;;;;;;;;13.00;99.90;;;;;;5050327;28;20253;-74
2024/03/22 11:41:10;;;;;;;;;;;13.00;99.90;;;;;;5053857;28;20252;-74
2024/03/22 11:43:36;;;;;;;;;;;13.00;99.90;;;;;;5036396;28;19917;-76
2024/03/22 11:46:02;;;;;;;;;;;13.00;99.90;;;;;;5035507;28;19921;-75
2024/03/22 11:48:27;;;;;;;;;;;12.90;99.90;;;;;;5003592;28;20031;-74
2024/03/22 11:50:53;;;;;;;;;;;12.80;99.90;;;;;;5037527;28;19971;-75
2024/03/22 11:53:18;;;;;;;;;;;12.80;99.90;;;;;;5036006;28;20273;-75
2024/03/22 11:55:45;;;;;;;;;;;12.80;99.90;;;;;;5019375;28;19913;-78
2024/03/22 11:58:11;;;;;;;;;;;12.80;99.90;;;;;;5065356;28;19917;-79
2024/03/22 12:00:37;;;;;;;;;;;13.00;99.90;;;;;;5004786;28;19960;-78
2024/03/22 12:03:03;;;;;;;;;;;13.00;99.90;;;;;;5043273;28;19953;-79
2024/03/22 12:05:29;;;;;;;;;;;13.10;99.90;;;;;;5068928;28;20663;-79
2024/03/22 12:07:55;;;;;;;;;;;13.20;99.90;;;;;;5027746;28;19944;-79
2024/03/22 12:10:20;;;;;;;;;;;13.20;99.90;;;;;;5054862;28;20308;-78
2024/03/22 12:12:46;;;;;;;;;;;13.30;99.90;;;;;;5065149;28;20266;-79
2024/03/22 12:15:12;;;;;;;;;;;13.30;99.90;;;;;;5032927;28;20315;-78
2024/03/22 12:17:39;;;;;;;;;;;13.40;99.90;;;;;;5011936;28;19918;-74
2024/03/22 12:20:08;;;;;;;;;;;13.30;99.90;;;;;;5031644;28;19956;-74
2024/03/22 12:22:34;;;;;;;;;;;13.30;99.90;;;;;;5041345;28;19952;-74
2024/03/22 12:25:01;;;;;;;;;;;13.20;99.90;;;;;;5048756;28;20344;-74
2024/03/22 12:27:26;;;;;;;;;;;13.20;99.90;;;;;;5032569;28;19913;-74
2024/03/22 12:29:52;;;;;;;;;;;13.20;99.90;;;;;;5003724;28;19924;-76
2024/03/22 12:32:18;;;;;;;;;;;13.20;99.90;;;;;;5032608;28;19921;-74
2024/03/22 12:34:43;;;;;;;;;;;13.20;99.90;;;;;;5075703;28;19956;-75
2024/03/22 12:37:10;;;;;;;;;;;13.20;99.90;;;;;;5062770;28;20246;-75
2024/03/22 12:39:37;;;;;;;;;;;13.20;99.90;;;;;;5022256;28;20312;-76
2024/03/22 12:42:02;;;;;;;;;;;13.20;99.90;;;;;;5021494;28;19916;-75
2024/03/22 12:44:28;;;;;;;;;;;13.20;99.90;;;;;;5042087;28;19947;-77
2024/03/22 12:46:54;;;;;;;;;;;13.20;99.90;;;;;;5053621;28;19952;-75
2024/03/22 12:49:20;;;;;;;;;;;13.20;99.90;;;;;;5048827;28;19913;-76
2024/03/22 12:51:46;;;;;;;;;;;13.30;99.90;;;;;;5039714;28;20043;-76
2024/03/22 12:54:14;;;;;;;;;;;13.20;99.90;;;;;;5040801;28;19924;-77
2024/03/22 12:56:40;;;;;;;;;;;13.20;99.90;;;;;;5037257;28;19917;-74
2024/03/22 12:59:05;;;;;;;;;;;13.20;99.90;;;;;;5034674;28;19913;-75
2024/03/22 13:01:31;;;;;;;;;;;13.20;99.90;;;;;;5069840;28;19925;-76
2024/03/22 13:03:56;;;;;;;;;;;13.20;99.90;;;;;;5052497;28;20285;-76
2024/03/22 13:06:22;;;;;;;;;;;13.20;99.90;;;;;;5053901;28;19928;-77
2024/03/22 13:08:48;;;;;;;;;;;13.10;99.90;;;;;;5060657;28;19914;-77
2024/03/22 13:11:14;;;;;;;;;;;13.10;99.90;;;;;;5031206;28;19948;-77
2024/03/22 13:13:39;;;;;;;;;;;13.10;99.90;;;;;;5067424;28;19924;-75
2024/03/22 13:16:06;;;;;;;;;;;13.10;99.90;;;;;;5050698;28;19914;-76
2024/03/22 13:18:32;;;;;;;;;;;13.10;99.90;;;;;;5036721;28;19913;-76
2024/03/22 13:20:58;;;;;;;;;;;13.10;99.90;;;;;;5051727;28;20737;-76
2024/03/22 13:23:23;;;;;;;;;;;13.10;99.90;;;;;;5064329;28;20238;-76
2024/03/22 13:25:50;;;;;;;;;;;13.10;99.90;;;;;;5037532;28;19925;-76
2024/03/22 13:28:20;;;;;;;;;;;13.10;99.90;;;;;;5034132;28;19928;-75
2024/03/22 13:30:45;;;;;;;;;;;13.10;99.90;;;;;;5022185;28;20014;-75
2024/03/22 13:33:11;;;;;;;;;;;13.10;99.90;;;;;;5084897;28;19959;-74
2024/03/22 13:35:37;;;;;;;;;;;13.10;99.90;;;;;;5039594;28;20384;-75
2024/03/22 13:38:02;;;;;;;;;;;13.10;99.90;;;;;;5033907;28;19913;-75
2024/03/22 13:40:28;;;;;;;;;;;13.10;99.90;;;;;;5061239;28;19917;-74
2024/03/22 13:42:54;;;;;;;;;;;13.20;99.90;;;;;;5067600;28;19917;-76
2024/03/22 13:45:20;;;;;;;;;;;13.10;99.90;;;;;;5046846;28;20026;-76
2024/03/22 13:47:48;;;;;;;;;;;13.20;99.90;;;;;;5042266;28;20020;-77
2024/03/22 13:50:14;;;;;;;;;;;13.10;99.90;;;;;;5000726;28;19999;-76
2024/03/22 13:52:40;;;;;;;;;;;13.10;99.90;;;;;;5003402;28;20006;-77
2024/03/22 13:55:06;;;;;;;;;;;13.10;99.90;;;;;;5051493;28;19967;-77
2024/03/22 13:57:31;;;;;;;;;;;13.00;99.90;;;;;;5020472;28;19913;-76
2024/03/22 13:59:57;;;;;;;;;;;13.00;99.90;;;;;;5034877;28;19917;-77
2024/03/22 14:02:23;;;;;;;;;;;12.90;99.90;;;;;;5040102;28;20012;-76
2024/03/22 14:04:49;;;;;;;;;;;12.90;99.90;;;;;;5034824;28;20047;-77
2024/03/22 14:07:14;;;;;;;;;;;12.90;99.90;;;;;;5021740;28;19956;-76
2024/03/22 14:09:40;;;;;;;;;;;12.90;99.90;;;;;;5046481;28;19920;-77
2024/03/22 14:12:06;;;;;;;;;;;12.80;99.90;;;;;;5058863;28;20216;-77
2024/03/22 14:14:32;;;;;;;;;;;12.70;99.90;;;;;;5031431;28;19940;-76
2024/03/22 14:16:57;;;;;;;;;;;12.70;99.90;;;;;;5014213;28;20688;-77